createdAt,value
2019-05-25T00:00:12.883Z,68.27
2019-05-25T00:02:43.819Z,68.29
2019-05-25T00:05:13.653Z,68.43
2019-05-25T00:07:43.412Z,68.53
2019-05-25T00:10:13.206Z,68.88
2019-05-25T00:12:42.788Z,68.97
2019-05-25T00:15:12.948Z,69.30
2019-05-25T00:17:42.354Z,69.23
2019-05-25T00:20:11.942Z,68.73
2019-05-25T00:22:41.684Z,68.61
2019-05-25T00:25:11.274Z,68.46
2019-05-25T00:27:40.687Z,68.76
2019-05-25T00:30:10.473Z,68.84
2019-05-25T00:32:39.879Z,68.78
2019-05-25T00:35:09.578Z,67.89
2019-05-25T00:37:38.984Z,67.12
2019-05-25T00:40:09.463Z,66.53
2019-05-25T00:42:38.877Z,66.22
2019-05-25T00:45:08.550Z,66.05
2019-05-25T00:47:38.077Z,66.06
2019-05-25T00:50:08.064Z,66.18
2019-05-25T00:52:37.583Z,66.00
2019-05-25T00:55:08.686Z,66.01
2019-05-25T00:57:38.917Z,66.07
2019-05-25T01:00:08.883Z,66.23
2019-05-25T01:02:40.206Z,66.41
2019-05-25T01:05:10.216Z,65.62
2019-05-25T01:07:39.655Z,65.19
2019-05-25T01:10:09.507Z,65.19
2019-05-25T01:12:38.959Z,65.06
2019-05-25T01:15:10.653Z,65.45
2019-05-25T01:17:40.132Z,65.60
2019-05-25T01:20:10.491Z,65.86
2019-05-25T01:22:40.412Z,66.27
2019-05-25T01:25:10.550Z,66.22
2019-05-25T01:27:39.993Z,66.56
2019-05-25T01:30:11.330Z,69.80
2019-05-25T01:32:42.426Z,71.89
2019-05-25T01:35:11.836Z,72.76
2019-05-25T01:37:41.284Z,73.08
2019-05-25T01:40:11.254Z,72.92
2019-05-25T01:42:40.745Z,73.17
2019-05-25T01:45:10.736Z,73.09
2019-05-25T01:47:40.149Z,73.24
2019-05-25T01:50:09.846Z,72.67
2019-05-25T01:52:39.261Z,72.77
2019-05-25T01:55:09.500Z,73.10
2019-05-25T01:57:38.909Z,72.58
2019-05-25T02:00:09.448Z,72.55
2019-05-25T02:02:38.991Z,72.68
2019-05-25T02:05:09.346Z,72.93
2019-05-25T02:07:38.818Z,74.00
2019-05-25T02:10:09.412Z,76.01
2019-05-25T02:12:38.823Z,77.02
2019-05-25T02:15:09.515Z,77.30
2019-05-25T02:17:38.997Z,77.34
2019-05-25T02:20:09.199Z,77.42
2019-05-25T02:22:38.607Z,77.65
2019-05-25T02:25:17.714Z,77.78
2019-05-25T02:27:41.857Z,77.21
2019-05-25T02:30:14.223Z,76.77
2019-05-25T02:32:43.689Z,76.05
2019-05-25T02:35:27.553Z,75.86
2019-05-25T02:37:57.853Z,75.78
2019-05-25T02:40:28.047Z,75.76
2019-05-25T02:42:57.753Z,75.32
2019-05-25T02:45:27.545Z,74.96
2019-05-25T02:47:57.002Z,75.17
2019-05-25T02:50:26.579Z,74.33
2019-05-25T02:52:56.023Z,74.14
2019-05-25T02:55:34.293Z,73.74
2019-05-25T02:57:56.745Z,73.60
2019-05-25T03:00:34.095Z,73.58
2019-05-25T03:03:05.123Z,73.25
2019-05-25T03:05:34.704Z,73.25
2019-05-25T03:08:04.534Z,73.57
2019-05-25T03:10:34.355Z,74.34
2019-05-25T03:13:04.703Z,74.30
2019-05-25T03:15:34.147Z,74.24
2019-05-25T03:18:03.883Z,74.79
2019-05-25T03:20:33.421Z,74.97
2019-05-25T03:23:03.209Z,75.15
2019-05-25T03:25:48.258Z,75.70
2019-05-25T03:28:03.961Z,75.71
2019-05-25T03:30:35.534Z,76.06
2019-05-25T03:33:05.413Z,76.28
2019-05-25T03:35:34.928Z,76.46
2019-05-25T03:38:04.359Z,76.73
2019-05-25T03:40:33.954Z,77.00
2019-05-25T03:43:04.151Z,77.87
2019-05-25T03:45:34.826Z,78.16
2019-05-25T03:48:04.415Z,78.65
2019-05-25T03:50:33.851Z,78.72
2019-05-25T03:53:03.364Z,78.72
2019-05-25T03:55:32.779Z,77.68
2019-05-25T03:58:02.225Z,77.45
2019-05-25T04:00:34.627Z,77.17
2019-05-25T04:03:04.730Z,77.67
2019-05-25T04:05:34.483Z,78.47
2019-05-25T04:08:04.008Z,78.62
2019-05-25T04:10:33.489Z,78.97
2019-05-25T04:13:03.811Z,78.90
2019-05-25T04:15:33.290Z,79.04
2019-05-25T04:18:03.227Z,80.63
2019-05-25T04:20:32.687Z,82.85
2019-05-25T04:23:02.150Z,84.08
2019-05-25T04:25:31.570Z,85.11
2019-05-25T04:28:01.036Z,85.96
2019-05-25T04:30:30.429Z,85.92
2019-05-25T04:32:59.881Z,86.02
2019-05-25T04:35:29.305Z,85.84
2019-05-25T04:37:58.816Z,86.42
2019-05-25T04:40:28.215Z,86.48
2019-05-25T04:42:57.663Z,86.72
2019-05-25T04:45:27.076Z,86.14
2019-05-25T04:47:56.543Z,86.16
2019-05-25T04:50:25.944Z,86.65
2019-05-25T04:52:55.417Z,86.33
2019-05-25T04:55:24.908Z,86.46
2019-05-25T04:57:54.350Z,87.53
2019-05-25T05:00:23.764Z,88.49
2019-05-25T05:02:53.459Z,90.14
2019-05-25T05:05:22.941Z,91.29
2019-05-25T05:07:52.661Z,91.39
2019-05-25T05:10:22.070Z,91.91
2019-05-25T05:12:51.522Z,91.80
2019-05-25T05:15:21.126Z,91.83
2019-05-25T05:17:50.563Z,91.98
2019-05-25T05:20:21.120Z,91.66
2019-05-25T05:22:50.718Z,92.08
2019-05-25T05:25:21.781Z,91.65
2019-05-25T05:27:51.231Z,90.18
2019-05-25T05:30:23.746Z,90.73
2019-05-25T05:32:54.780Z,89.96
2019-05-25T05:35:24.281Z,88.97
2019-05-25T05:37:53.937Z,89.03
2019-05-25T05:40:23.481Z,88.29
2019-05-25T05:42:54.337Z,87.02
2019-05-25T05:45:23.788Z,88.16
2019-05-25T05:47:55.574Z,85.43
2019-05-25T05:50:25.157Z,85.93
2019-05-25T05:52:55.616Z,86.05
2019-05-25T05:55:32.494Z,84.92
2019-05-25T05:58:03.532Z,85.42
2019-05-25T06:00:33.106Z,84.39
2019-05-25T06:03:02.462Z,83.14
2019-05-25T06:05:31.888Z,82.61
2019-05-25T06:08:01.613Z,83.56
2019-05-25T06:10:31.354Z,82.56
2019-05-25T06:13:00.792Z,82.58
2019-05-25T06:15:30.235Z,82.87
2019-05-25T06:17:59.838Z,82.62
2019-05-25T06:20:29.263Z,81.90
2019-05-25T06:22:58.843Z,82.01
2019-05-25T06:25:28.697Z,81.43
2019-05-25T06:27:58.189Z,80.62
2019-05-25T06:30:27.858Z,80.72
2019-05-25T06:32:57.361Z,80.30
2019-05-25T06:35:26.814Z,78.28
2019-05-25T06:37:56.274Z,78.78
2019-05-25T06:40:25.769Z,78.21
2019-05-25T06:42:55.303Z,78.51
2019-05-25T06:45:24.706Z,78.79
2019-05-25T06:47:54.161Z,77.44
2019-05-25T06:50:23.775Z,75.01
2019-05-25T06:52:57.857Z,75.34
2019-05-25T06:55:26.040Z,75.81
2019-05-25T06:57:55.557Z,75.54
2019-05-25T07:00:25.185Z,76.90
2019-05-25T07:02:54.699Z,73.77
2019-05-25T07:05:24.109Z,75.43
2019-05-25T07:07:54.834Z,74.61
2019-05-25T07:10:24.444Z,75.41
2019-05-25T07:12:54.024Z,75.62
2019-05-25T07:15:23.614Z,76.59
2019-05-25T07:17:53.084Z,77.14
2019-05-25T07:20:22.634Z,77.09
2019-05-25T07:22:52.082Z,76.94
2019-05-25T07:25:21.630Z,76.72
2019-05-25T07:27:59.502Z,76.27
2019-05-25T07:30:22.489Z,76.80
2019-05-25T07:32:58.734Z,75.04
2019-05-25T07:35:28.125Z,74.83
2019-05-25T07:37:57.641Z,73.59
2019-05-25T07:40:27.117Z,73.19
2019-05-25T07:42:56.585Z,72.77
2019-05-25T07:45:25.971Z,72.50
2019-05-25T07:47:56.962Z,71.61
2019-05-25T07:50:26.459Z,71.42
2019-05-25T07:52:58.613Z,71.41
2019-05-25T07:55:28.093Z,69.84
2019-05-25T07:57:57.639Z,68.97
2019-05-25T08:00:27.324Z,68.17
2019-05-25T08:02:56.763Z,66.22
2019-05-25T14:26:15.270Z,54.52
2019-05-25T14:28:44.703Z,58.18
2019-05-25T14:31:14.153Z,58.66
2019-05-25T14:33:43.685Z,59.47
2019-05-25T14:36:13.242Z,59.38
2019-05-25T14:38:42.652Z,58.32
2019-05-25T14:41:12.198Z,56.30
2019-05-25T14:43:41.789Z,56.27
2019-05-25T14:46:25.173Z,52.27
2019-05-25T14:48:42.417Z,51.92
2019-05-25T14:51:11.904Z,52.68
2019-05-25T14:53:41.325Z,50.39
2019-05-25T14:56:10.794Z,48.01
2019-05-25T14:58:40.287Z,48.76
2019-05-25T15:01:09.780Z,50.53
2019-05-25T15:03:39.222Z,48.69
2019-05-25T15:06:08.736Z,46.75
2019-05-25T15:08:38.171Z,49.35
2019-05-25T15:11:07.742Z,53.28
2019-05-25T15:13:37.142Z,52.76
2019-05-25T15:16:06.577Z,53.99
2019-05-25T15:18:36.362Z,53.70
2019-05-25T15:21:05.795Z,54.42
2019-05-25T15:23:35.289Z,54.21
2019-05-25T15:26:06.242Z,54.75
2019-05-25T15:28:35.654Z,54.64
2019-05-25T15:31:06.648Z,51.78
2019-05-25T15:33:36.092Z,47.86
2019-05-25T15:36:05.689Z,46.44
2019-05-25T15:38:35.849Z,47.66
2019-05-25T15:41:05.352Z,50.29
2019-05-25T15:43:34.881Z,47.51
2019-05-25T15:46:04.499Z,47.53
2019-05-25T15:48:33.916Z,45.83
2019-05-25T15:51:03.559Z,46.68
2019-05-25T15:53:33.120Z,46.29
2019-05-25T15:56:02.550Z,44.44
2019-05-25T15:58:31.956Z,45.31
2019-05-25T16:01:01.629Z,44.56
2019-05-25T16:03:31.087Z,45.03
2019-05-25T16:06:00.611Z,44.85
2019-05-25T16:08:30.096Z,46.67
2019-05-25T16:10:59.566Z,44.68
2019-05-25T16:13:28.953Z,43.14
2019-05-25T16:15:58.451Z,42.80
2019-05-25T16:18:27.912Z,42.03
2019-05-25T16:20:57.350Z,43.93
2019-05-25T16:23:26.827Z,42.99
2019-05-25T16:25:56.301Z,45.65
2019-05-25T16:28:25.966Z,46.33
2019-05-25T16:30:55.418Z,44.72
2019-05-25T16:33:24.844Z,43.37
2019-05-25T16:35:57.932Z,41.68
2019-05-25T16:38:25.603Z,44.81
2019-05-25T16:40:56.592Z,43.80
2019-05-25T16:43:26.047Z,45.61
2019-05-25T16:45:55.573Z,45.61
2019-05-25T16:48:27.066Z,44.82
2019-05-25T16:50:56.528Z,43.71
2019-05-25T16:53:25.966Z,45.69
2019-05-25T16:55:55.428Z,47.84
2019-05-25T16:58:26.437Z,47.43
2019-05-25T17:00:55.878Z,45.33
2019-05-25T17:03:28.541Z,47.01
2019-05-25T17:05:57.175Z,44.78
2019-05-25T17:08:26.618Z,43.79
2019-05-25T17:10:56.113Z,42.18
2019-05-25T17:13:25.581Z,44.04
2019-05-25T17:15:55.079Z,43.27
2019-05-25T17:18:24.656Z,44.15
2019-05-25T17:20:54.130Z,44.83
2019-05-25T17:23:25.267Z,44.83
2019-05-25T17:25:54.680Z,43.58
2019-05-25T17:28:24.126Z,43.59
2019-05-25T17:30:53.622Z,43.59
2019-05-25T17:33:23.241Z,44.16
2019-05-25T17:35:54.222Z,44.97
2019-05-25T17:38:23.750Z,44.21
2019-05-25T17:40:53.199Z,47.62
2019-05-25T17:43:22.644Z,47.98
2019-05-25T17:45:52.095Z,50.41
2019-05-25T17:48:23.105Z,49.05
2019-05-25T17:50:52.663Z,48.04
2019-05-25T17:53:22.148Z,47.68
2019-05-25T17:55:51.596Z,48.27
2019-05-25T17:58:21.147Z,48.16
2019-05-25T18:00:51.030Z,49.51
2019-05-25T18:03:20.533Z,50.27
2019-05-25T18:05:50.048Z,50.85
2019-05-25T18:08:19.514Z,51.47
2019-05-25T18:10:53.128Z,52.81
2019-05-25T18:13:20.268Z,53.60
2019-05-25T18:15:49.808Z,52.97
2019-05-25T18:18:19.302Z,52.66
2019-05-25T18:20:48.927Z,51.31
2019-05-25T18:23:18.876Z,52.88
2019-05-25T18:25:48.562Z,54.18
2019-05-25T18:28:17.962Z,57.20
2019-05-25T18:30:47.483Z,58.21
2019-05-25T18:33:16.898Z,59.13
2019-05-25T18:35:46.348Z,59.75
2019-05-25T18:38:15.754Z,60.17
2019-05-25T18:40:45.194Z,61.09
2019-05-25T18:43:14.676Z,61.60
2019-05-25T18:45:44.119Z,61.53
2019-05-25T18:48:13.519Z,62.30
2019-05-25T18:50:43.442Z,63.24
2019-05-25T18:53:12.924Z,63.56
2019-05-25T18:55:42.442Z,65.01
2019-05-25T18:58:11.856Z,64.10
2019-05-25T19:00:41.627Z,64.80
2019-05-25T19:03:11.109Z,65.14
2019-05-25T19:05:40.568Z,65.31
2019-05-25T19:08:09.974Z,66.11
2019-05-25T19:10:39.421Z,66.59
2019-05-25T19:13:08.853Z,67.34
2019-05-25T19:15:38.306Z,67.25
2019-05-25T19:18:07.830Z,68.15
2019-05-25T19:20:37.437Z,68.66
2019-05-25T19:23:06.886Z,69.23
2019-05-25T19:25:36.349Z,69.15
2019-05-25T19:28:05.947Z,68.82
2019-05-25T19:30:35.385Z,69.52
2019-05-25T19:33:05.378Z,70.34
2019-05-25T19:35:36.405Z,70.65
2019-05-25T19:38:06.013Z,71.11
2019-05-25T19:40:35.495Z,71.80
2019-05-25T19:43:05.155Z,71.79
2019-05-25T19:45:34.598Z,72.40
2019-05-25T19:48:04.313Z,73.09
2019-05-25T19:50:33.742Z,72.97
2019-05-25T19:53:03.256Z,73.85
2019-05-25T19:55:32.699Z,74.05
2019-05-25T19:58:02.153Z,73.06
2019-05-25T20:00:31.642Z,72.78
2019-05-25T20:03:01.061Z,72.59
2019-05-25T20:05:30.574Z,73.22
2019-05-25T20:08:00.013Z,73.53
2019-05-25T20:10:29.568Z,73.71
2019-05-25T20:12:59.281Z,74.61
2019-05-25T20:15:28.750Z,75.57
2019-05-25T20:17:58.248Z,75.30
2019-05-25T20:20:27.704Z,75.02
2019-05-25T20:22:58.749Z,75.72
2019-05-25T20:25:28.193Z,75.92
2019-05-25T20:27:57.604Z,75.87
2019-05-25T20:30:27.073Z,76.22
2019-05-25T20:32:56.480Z,75.68
2019-05-25T20:35:33.048Z,76.25
2019-05-25T20:37:57.161Z,76.46
2019-05-25T20:40:27.089Z,77.65
2019-05-25T20:42:56.497Z,77.16
2019-05-25T20:45:25.919Z,77.03
2019-05-25T20:47:55.375Z,77.51
2019-05-25T20:50:24.855Z,77.07
2019-05-25T20:52:54.394Z,77.10
2019-05-25T20:55:23.800Z,77.48
2019-05-25T20:57:54.894Z,77.26
2019-05-25T21:00:24.649Z,78.71
2019-05-25T21:03:05.119Z,78.62
2019-05-25T21:05:25.520Z,78.34
2019-05-25T21:07:55.052Z,77.27
2019-05-25T21:10:24.531Z,77.51
2019-05-25T21:12:53.987Z,78.16
2019-05-25T21:15:23.389Z,79.46
2019-05-25T21:17:52.833Z,79.97
2019-05-25T21:20:22.231Z,80.35
2019-05-25T21:22:51.735Z,79.95
2019-05-25T21:25:21.134Z,79.87
2019-05-25T21:27:51.820Z,80.13
2019-05-25T21:30:21.461Z,80.17
2019-05-25T21:32:52.531Z,80.95
2019-05-25T21:35:21.945Z,80.85
2019-05-25T21:37:51.384Z,80.08
2019-05-25T21:40:21.087Z,80.26
2019-05-25T21:42:50.592Z,80.13
2019-05-25T21:45:20.500Z,80.58
2019-05-25T21:47:50.091Z,81.12
2019-05-25T21:50:19.712Z,80.63
2019-05-25T21:52:49.306Z,80.91
2019-05-25T21:55:18.713Z,80.44
2019-05-25T21:57:48.178Z,80.40
2019-05-25T22:00:23.076Z,80.28
2019-05-25T22:02:52.576Z,80.46
2019-05-25T22:05:22.308Z,80.53
2019-05-25T22:07:52.240Z,80.92
2019-05-25T22:10:21.678Z,81.41
2019-05-25T22:12:51.152Z,82.04
2019-05-25T22:15:20.669Z,81.91
2019-05-25T22:17:51.613Z,82.19
2019-05-25T22:20:21.324Z,82.11
2019-05-25T22:22:50.730Z,82.18
2019-05-25T22:25:20.241Z,82.75
2019-05-25T22:27:49.647Z,82.84
2019-05-25T22:30:21.136Z,82.80
2019-05-25T22:32:50.584Z,82.97
2019-05-25T22:35:20.096Z,82.99
2019-05-25T22:37:49.820Z,83.05
2019-05-25T22:40:19.408Z,83.10
2019-05-25T22:42:48.832Z,83.15
2019-05-25T22:45:18.348Z,83.53
2019-05-25T22:47:47.745Z,83.69
2019-05-25T22:50:19.016Z,83.94
2019-05-25T22:52:48.415Z,84.78
2019-05-25T22:55:17.931Z,84.81
2019-05-25T22:57:47.432Z,84.96
2019-05-25T23:00:17.378Z,85.33
2019-05-25T23:02:46.793Z,85.34
2019-05-25T23:05:16.306Z,85.56
2019-05-25T23:07:45.713Z,85.74
2019-05-25T23:10:15.220Z,85.30
2019-05-25T23:12:44.626Z,85.18
2019-05-25T23:15:14.410Z,84.73
2019-05-25T23:17:43.835Z,85.12
2019-05-25T23:20:13.725Z,85.21
2019-05-25T23:22:43.134Z,85.15
2019-05-25T23:25:12.660Z,85.40
2019-05-25T23:27:42.067Z,85.15
2019-05-25T23:30:11.864Z,85.31
2019-05-25T23:32:41.474Z,86.10
2019-05-25T23:35:11.160Z,86.18
2019-05-25T23:37:40.579Z,86.38
2019-05-25T23:40:10.169Z,86.44
2019-05-25T23:42:39.648Z,86.39
2019-05-25T23:45:09.490Z,86.61
2019-05-25T23:47:38.894Z,87.09
2019-05-25T23:50:08.925Z,86.93
2019-05-25T23:52:38.485Z,87.03
2019-05-25T23:55:08.061Z,87.35
2019-05-25T23:57:37.487Z,87.27
